King Salmon, AK

7:07 PM AKDT on March 27, 2017 (GMT -0800)
King Salmon | | Change Station

Elev 56 ft 58.68 °N, 156.65 °W | Updated 13 minutes ago

Clear
Clear
27 °F
Feels Like 15 °F
N
15
Wind Variable Wind from North

Today
High -- | Low -- °F
--% Chance of Precip.
Yesterday
High -- | Low -- °F
Precip. -- in
Pressure 29.43 in
Visibility 10.0 miles
Clouds Few 18000 ft
Windchill 15 °F
Dew Point 12 °F
Humidity 53%
Rainfall 0.00 in
Snow Depth Not available.
8:06 AM 8:58 PM
New Moon, 0% visible
METAR PAKN 280254Z 36013KT 10SM FEW180 M03/M11 A2943 RMK AO2 SLP965 T10281111 56005
Pressure 29.43 in
Visibility 10.0 miles
Clouds Few 18000 ft
Windchill 15 °F
Dew Point 12 °F
Humidity 53%
Rainfall 0.00 in
Snow Depth Not available.
8:06 AM 8:58 PM
New Moon, 0% visible
METAR PAKN 280254Z 36013KT 10SM FEW180 M03/M11 A2943 RMK AO2 SLP965 T10281111 56005

Get Severe Weather Alerts

Thanks for signing up!

Be on the lookout for a verification email in your inbox.

You'll start receiving the daily forecast at 8 AM.

×

10-Day Weather Forecast

Almanac

Astronomy

Mar. 27, 2017 Rise Set
Actual Time
Civil Twilight
Nautical Twilight
Astronomical Twilight
Moon
Length of Visible Light
Length of Day
Tomorrow will be .
, % of the Moon is Illuminated

Today's Extremes

State Highs State Lows

Community

WunderPhotos

Upload Photos

1,962,540 photos uploaded!

WunderBlog® & News

Nearby

Air Quality

  Air Quality AQ Index Pollutant
Not available.

Snow Depth

Station Depth Elevation

Earthquake Activity

City Distance Mag. Time & Date
Minimum magnitude displayed is 2.5.

Earthquake Activity

City Distance Mag. Time & Date
Minimum magnitude displayed is 2.5.

Coastal Water Temperatures

Place Temperature

Stations

Nearby Weather Stations

Station Location Temp. Windchill Dew Point Humidity Wind Precip. Elev Updated Type
                   

Watches & Warnings

There are currently no watches in effect.